Time;durP1;ratioP1;P1;durP2;ratioP2;P2;SDS_P1;SDS_P2;PMS_P1;PMS_P2;Temp;Humidity;BMP_temperature;BMP_pressure;BME280_temperature;BME280_humidity;BME280_pressure;Samples;Min_cycle;Max_cycle;Signal;HPM_P1;HPM_P2
2022/01/26 00:00:06;;;;;;;33.85;16.38;;;;;;;5.97;53.17;102646.63;695998;28;1178;-86
2022/01/26 00:05:50;;;;;;;37.95;17.17;;;;;;;5.86;53.49;102644.88;691784;28;1048;-86
2022/01/26 00:06:22;;;;;;;36.85;17.20;;;;;;;5.91;53.12;102643.53;692031;28;1092;-85
2022/01/26 00:06:44;;;;;;;33.60;17.58;;;;;;;5.93;52.92;102657.50;690437;28;1102;-86
2022/01/26 00:07:05;;;;;;;35.50;16.98;;;;;;;5.83;53.62;102636.88;682511;29;1258;-86
2022/01/26 00:07:26;;;;;;;37.47;16.80;;;;;;;5.93;53.60;102654.91;685232;28;839;-86
2022/01/26 00:07:46;;;;;;;36.23;16.30;;;;;;;5.86;53.45;102642.28;690260;28;1914;-86
2022/01/26 00:08:07;;;;;;;32.88;16.08;;;;;;;5.92;53.15;102647.94;690588;28;965;-85
2022/01/26 00:08:27;;;;;;;28.47;15.57;;;;;;;5.92;53.11;102641.84;688032;28;922;-86
2022/01/26 00:08:48;;;;;;;25.73;15.03;;;;;;;5.99;53.02;102657.06;687459;28;1342;-85
2022/01/26 00:09:10;;;;;;;24.52;14.65;;;;;;;5.89;53.07;102643.41;687867;28;989;-86
2022/01/26 00:09:31;;;;;;;26.13;14.68;;;;;;;5.93;53.10;102654.91;685104;28;1291;-86
2022/01/26 00:09:51;;;;;;;27.25;15.07;;;;;;;5.95;53.13;102653.34;685092;28;1090;-85
2022/01/26 00:10:12;;;;;;;27.30;15.20;;;;;;;5.95;52.90;102658.53;686779;28;1691;-86
2022/01/26 00:10:34;;;;;;;27.10;15.20;;;;;;;5.89;52.99;102642.50;684471;28;1660;-85
2022/01/26 00:10:54;;;;;;;30.35;15.68;;;;;;;5.88;52.88;102643.28;687860;28;1358;-86
2022/01/26 00:11:20;;;;;;;31.27;16.10;;;;;;;5.89;53.17;102639.91;689231;28;1718;-85
2022/01/26 00:11:41;;;;;;;30.67;16.38;;;;;;;5.94;53.04;102651.53;694014;28;1087;-86
2022/01/26 00:12:03;;;;;;;29.40;15.95;;;;;;;5.85;53.06;102640.47;693433;28;826;-86
2022/01/26 00:12:24;;;;;;;29.60;15.63;;;;;;;5.86;53.19;102635.41;687971;28;807;-86
2022/01/26 00:12:44;;;;;;;31.88;15.70;;;;;;;5.86;52.89;102637.09;687905;28;1135;-85
2022/01/26 00:13:05;;;;;;;29.47;15.67;;;;;;;5.89;52.85;102642.50;687760;28;1267;-86
2022/01/26 00:13:25;;;;;;;29.65;15.88;;;;;;;5.87;53.10;102633.72;690654;28;803;-86
2022/01/26 00:13:46;;;;;;;29.53;15.40;;;;;;;5.91;52.97;102632.25;693029;28;1178;-86
2022/01/26 00:14:11;;;;;;;30.47;15.60;;;;;;;6.01;52.92;102658.09;685028;28;1341;-86
2022/01/26 00:14:31;;;;;;;30.25;16.08;;;;;;;5.94;52.97;102640.28;685474;28;1406;-86
2022/01/26 00:14:52;;;;;;;30.00;16.08;;;;;;;5.93;52.99;102641.97;682599;29;1147;-86
2022/01/26 00:15:12;;;;;;;31.20;16.17;;;;;;;5.91;52.99;102638.34;685619;28;1485;-86
2022/01/26 00:15:33;;;;;;;30.35;15.93;;;;;;;5.92;52.87;102644.44;683106;28;1192;-86
2022/01/26 00:15:54;;;;;;;30.92;15.50;;;;;;;5.95;53.11;102645.56;685076;28;1473;-85
2022/01/26 00:16:36;;;;;;;29.42;14.88;;;;;;;5.93;53.12;102638.44;685060;28;1235;-85
2022/01/26 00:16:56;;;;;;;33.22;15.52;;;;;;;5.95;53.10;102644.69;687804;28;1224;-85
2022/01/26 00:17:17;;;;;;;34.28;16.35;;;;;;;5.93;53.07;102638.44;689012;28;1288;-86
2022/01/26 00:17:38;;;;;;;34.25;16.70;;;;;;;6.00;53.21;102657.22;687846;28;1106;-86
2022/01/26 00:17:58;;;;;;;31.10;16.40;;;;;;;5.93;53.14;102635.88;685111;28;1240;-86
2022/01/26 00:18:21;;;;;;;30.80;15.98;;;;;;;5.97;52.90;102650.88;687940;28;1087;-86
2022/01/26 00:18:42;;;;;;;29.73;15.30;;;;;;;5.94;53.16;102646.34;686914;28;1285;-86
2022/01/26 00:19:04;;;;;;;30.75;15.63;;;;;;;5.96;53.30;102639.59;684738;28;1779;-86
2022/01/26 00:19:32;;;;;;;30.73;15.30;;;;;;;5.96;53.27;102647.38;685031;28;1211;-85
2022/01/26 00:20:04;;;;;;;29.85;15.73;;;;;;;5.96;53.21;102649.97;682485;29;840;-86
2022/01/26 00:20:37;;;;;;;30.10;16.40;;;;;;;5.97;53.47;102651.78;683483;28;911;-86
2022/01/26 00:21:06;;;;;;;34.08;17.13;;;;;;;5.94;53.36;102645.47;692446;28;992;-86
2022/01/26 00:21:32;;;;;;;34.03;17.13;;;;;;;5.96;53.22;102649.06;693257;28;1251;-85
2022/01/26 00:21:55;;;;;;;32.60;16.75;;;;;;;6.00;53.58;102658.88;685077;28;1577;-85
2022/01/26 00:22:44;;;;;;;31.25;16.35;;;;;;;5.91;53.25;102635.78;685267;28;807;-86
2022/01/26 00:24:37;;;;;;;29.17;15.63;;;;;;;5.98;53.34;102648.41;685107;28;1319;-86
2022/01/26 00:25:37;;;;;;;33.83;16.90;;;;;;;5.95;53.38;102640.38;693219;28;1206;-86
2022/01/26 00:27:01;;;;;;;34.55;17.92;;;;;;;5.96;53.33;102643.91;685141;28;1092;-85
2022/01/26 00:27:31;;;;;;;34.97;17.42;;;;;;;5.98;53.32;102648.41;687772;28;1033;-86
2022/01/26 00:28:35;;;;;;;37.43;19.10;;;;;;;5.95;52.80;102648.16;691548;28;1174;-86
2022/01/26 00:29:13;;;;;;;32.13;16.83;;;;;;;6.01;52.99;102666.78;687658;28;1257;-86
2022/01/26 00:29:37;;;;;;;31.83;16.95;;;;;;;5.92;53.77;102654.78;685149;28;1143;-85
2022/01/26 00:39:02;;;;;;;35.95;18.73;;;;;;;6.20;52.58;102638.78;687701;28;993;-86
2022/01/26 00:39:22;;;;;;;37.28;18.55;;;;;;;6.24;52.43;102646.91;685136;28;1292;-86
2022/01/26 00:39:43;;;;;;;36.60;18.10;;;;;;;6.22;52.58;102638.13;688254;28;1144;-86
2022/01/26 00:40:11;;;;;;;34.67;17.67;;;;;;;6.31;52.97;102656.03;690981;28;1934;-86
2022/01/26 00:41:02;;;;;;;38.13;18.80;;;;;;;6.23;52.34;102642.50;683028;28;1500;-86
2022/01/26 00:41:36;;;;;;;39.75;18.70;;;;;;;6.29;52.34;102652.44;687809;28;863;-86
2022/01/26 00:41:58;;;;;;;40.30;18.20;;;;;;;6.19;52.60;102645.66;686824;28;955;-86
2022/01/26 00:42:19;;;;;;;37.05;17.63;;;;;;;6.12;52.50;102640.78;685860;28;1434;-86
2022/01/26 00:42:42;;;;;;;33.72;18.33;;;;;;;6.16;52.81;102655.78;686004;28;1388;-86
2022/01/26 00:43:26;;;;;;;38.50;19.58;;;;;;;6.11;52.92;102649.34;685078;28;1037;-86
2022/01/26 00:43:51;;;;;;;44.78;20.85;;;;;;;6.03;52.90;102633.22;682084;28;1257;-85
2022/01/26 00:44:12;;;;;;;42.08;20.20;;;;;;;6.11;52.57;102649.34;682331;29;1309;-86
2022/01/26 00:44:40;;;;;;;38.33;19.23;;;;;;;6.08;52.80;102647.41;683048;28;1234;-86
2022/01/26 00:45:01;;;;;;;38.38;19.23;;;;;;;6.06;52.80;102637.75;684815;28;1396;-86
2022/01/26 00:45:25;;;;;;;40.00;19.50;;;;;;;6.05;52.93;102638.50;682421;28;1226;-86
2022/01/26 00:45:49;;;;;;;38.13;19.15;;;;;;;6.02;53.03;102645.25;685099;28;1907;-86
2022/01/26 00:46:10;;;;;;;35.28;17.85;;;;;;;6.08;52.84;102646.53;687658;28;1412;-86
2022/01/26 00:46:31;;;;;;;32.78;16.70;;;;;;;6.09;52.70;102645.75;690479;28;1365;-86
2022/01/26 00:46:52;;;;;;;33.50;17.05;;;;;;;6.05;53.04;102634.22;696161;28;790;-86
2022/01/26 00:47:14;;;;;;;30.90;15.75;;;;;;;6.13;52.62;102642.56;687903;28;1687;-86
2022/01/26 00:47:36;;;;;;;30.63;15.70;;;;;;;6.22;52.47;102639.78;685619;28;1375;-85
2022/01/26 00:47:57;;;;;;;30.27;16.15;;;;;;;6.13;52.57;102633.13;687746;28;1922;-86
2022/01/26 00:48:20;;;;;;;30.42;17.27;;;;;;;6.20;52.57;102637.06;687613;28;1367;-85
2022/01/26 00:48:42;;;;;;;31.67;17.23;;;;;;;6.14;52.62;102628.84;691872;28;1281;-86
2022/01/26 00:49:03;;;;;;;30.60;16.55;;;;;;;6.22;52.25;102642.38;693236;28;1102;-85
2022/01/26 00:49:24;;;;;;;30.55;16.13;;;;;;;6.21;52.22;102631.13;687749;28;852;-86
2022/01/26 00:49:45;;;;;;;29.50;16.23;;;;;;;6.23;52.03;102639.00;688541;28;1663;-86
2022/01/26 00:50:10;;;;;;;31.93;16.90;;;;;;;6.14;52.06;102614.19;690241;28;1265;-86
2022/01/26 00:50:33;;;;;;;33.15;17.40;;;;;;;6.15;52.09;102615.09;690398;28;1039;-85
2022/01/26 00:50:54;;;;;;;33.90;17.33;;;;;;;6.14;52.47;102619.38;688205;28;1592;-86
2022/01/26 00:51:16;;;;;;;31.88;16.70;;;;;;;6.15;52.02;102617.69;689813;28;1114;-85
2022/01/26 00:51:37;;;;;;;33.60;17.23;;;;;;;6.21;52.35;102633.72;691349;28;1406;-86
2022/01/26 00:51:57;;;;;;;33.27;16.80;;;;;;;6.16;52.26;102619.50;685108;28;1174;-86
2022/01/26 00:52:27;;;;;;;34.95;16.65;;;;;;;6.15;52.26;102623.75;687861;28;986;-86
2022/01/26 00:52:53;;;;;;;36.83;16.95;;;;;;;6.22;52.11;102632.00;687726;28;1157;-86
2022/01/26 00:53:13;;;;;;;35.35;17.02;;;;;;;6.22;51.94;102626.84;690574;28;1072;-85
2022/01/26 00:53:39;;;;;;;33.20;17.07;;;;;;;6.21;52.21;102625.03;690292;28;1171;-86
2022/01/26 00:54:16;;;;;;;35.22;17.65;;;;;;;6.23;52.54;102628.63;689861;28;1171;-85
2022/01/26 00:54:36;;;;;;;36.67;17.45;;;;;;;6.23;52.35;102621.78;687799;28;980;-86
2022/01/26 00:54:57;;;;;;;35.43;16.93;;;;;;;6.30;52.05;102631.81;684934;28;1735;-85
2022/01/26 00:55:19;;;;;;;35.15;16.58;;;;;;;6.24;51.98;102623.56;680880;29;1364;-85
2022/01/26 00:55:39;;;;;;;33.60;16.70;;;;;;;6.24;52.04;102620.06;682359;29;1104;-85
2022/01/26 00:56:01;;;;;;;35.20;16.98;;;;;;;6.26;52.26;102629.78;682331;29;1226;-86
2022/01/26 00:56:22;;;;;;;35.65;17.35;;;;;;;6.21;52.25;102625.03;682471;29;835;-85
2022/01/26 00:56:42;;;;;;;35.83;17.33;;;;;;;6.20;52.39;102618.94;685066;28;1433;-85
2022/01/26 00:57:03;;;;;;;33.40;16.95;;;;;;;6.19;52.45;102624.91;687569;28;1338;-85
2022/01/26 00:57:24;;;;;;;31.08;16.60;;;;;;;6.15;52.51;102607.31;687855;28;851;-85
2022/01/26 00:57:45;;;;;;;30.90;16.20;;;;;;;6.19;52.43;102617.13;686156;28;1120;-85
2022/01/26 00:58:05;;;;;;;32.05;15.93;;;;;;;6.18;52.24;102617.91;685157;28;1130;-85
2022/01/26 00:58:26;;;;;;;31.10;15.30;;;;;;;6.25;52.32;102625.38;685151;28;1123;-86
2022/01/26 00:58:47;;;;;;;31.83;15.10;;;;;;;6.21;52.10;102614.66;685010;28;1147;-86
2022/01/26 00:59:07;;;;;;;32.60;15.95;;;;;;;6.21;52.07;102610.38;685073;28;1409;-85
2022/01/26 00:59:28;;;;;;;33.03;16.13;;;;;;;6.17;52.13;102613.53;687513;28;1227;-85
2022/01/26 00:59:49;;;;;;;31.88;16.27;;;;;;;6.24;52.57;102623.56;687253;28;1155;-86
2022/01/26 01:00:18;;;;;;;30.80;16.17;;;;;;;6.28;52.36;102632.50;690483;28;977;-85
2022/01/26 01:00:38;;;;;;;32.47;17.58;;;;;;;6.23;51.97;102618.25;691457;28;1028;-86
2022/01/26 01:01:01;;;;;;;31.70;17.30;;;;;;;6.27;52.22;102631.56;693168;28;1006;-86
2022/01/26 01:01:21;;;;;;;29.60;16.60;;;;;;;6.24;52.03;102628.75;690422;28;1072;-86
2022/01/26 01:01:42;;;;;;;29.50;16.48;;;;;;;6.22;52.23;102622.56;686667;28;1041;-86
2022/01/26 01:02:03;;;;;;;31.33;16.60;;;;;;;6.23;52.18;102615.66;690479;28;1091;-85
2022/01/26 01:02:23;;;;;;;31.77;16.27;;;;;;;6.19;52.28;102609.34;690629;28;840;-86
2022/01/26 01:02:44;;;;;;;31.67;16.23;;;;;;;6.20;51.95;102618.94;688699;28;1275;-85
2022/01/26 01:03:05;;;;;;;30.40;15.93;;;;;;;6.19;52.15;102622.31;687789;28;1147;-85
2022/01/26 01:03:26;;;;;;;30.30;16.13;;;;;;;6.26;52.19;102629.78;687742;28;1719;-86
2022/01/26 01:03:47;;;;;;;33.13;16.45;;;;;;;6.20;52.05;102610.25;689915;28;1151;-85
2022/01/26 01:04:08;;;;;;;34.17;16.80;;;;;;;6.28;52.09;102625.59;690387;28;1063;-86
2022/01/26 01:04:29;;;;;;;34.40;16.80;;;;;;;6.26;52.14;102629.78;684914;28;768;-86
2022/01/26 01:04:49;;;;;;;32.20;16.33;;;;;;;6.29;51.89;102630.03;687611;28;1101;-86
2022/01/26 01:05:18;;;;;;;31.88;16.08;;;;;;;6.28;52.19;102623.00;690226;28;1296;-86
2022/01/26 01:05:48;;;;;;;33.55;17.02;;;;;;;6.22;52.32;102614.78;688845;28;1095;-85
2022/01/26 01:06:48;;;;;;;33.05;16.45;;;;;;;6.30;52.19;102630.91;690550;28;1029;-85
2022/01/26 01:07:16;;;;;;;34.60;17.00;;;;;;;6.23;52.01;102626.03;687811;28;2127;-86
2022/01/26 01:07:38;;;;;;;33.65;17.15;;;;;;;6.19;51.98;102621.44;689415;28;1134;-85
2022/01/26 01:08:07;;;;;;;32.15;17.25;;;;;;;6.16;52.29;102614.31;690177;28;1910;-85
2022/01/26 01:08:28;;;;;;;33.35;17.33;;;;;;;6.14;52.26;102613.31;687710;28;1201;-85
2022/01/26 01:08:49;;;;;;;32.97;17.07;;;;;;;6.20;52.12;102618.03;690112;28;1293;-86
2022/01/26 01:09:10;;;;;;;33.70;16.98;;;;;;;6.16;52.30;102611.72;689002;28;1104;-85
2022/01/26 01:09:33;;;;;;;32.75;16.98;;;;;;;6.16;52.10;102617.78;686335;28;1409;-85
2022/01/26 01:09:54;;;;;;;32.70;16.90;;;;;;;6.16;52.28;102614.31;684660;28;1403;-85
2022/01/26 01:10:18;;;;;;;31.02;16.23;;;;;;;6.14;52.32;102618.50;687419;28;1143;-85
2022/01/26 01:10:40;;;;;;;30.80;16.50;;;;;;;6.17;52.03;102613.53;687633;28;1063;-86
2022/01/26 01:11:06;;;;;;;30.08;15.98;;;;;;;6.23;52.28;102629.56;690415;28;1250;-85
2022/01/26 01:11:27;;;;;;;35.00;17.00;;;;;;;6.16;52.20;102606.53;687928;28;835;-85
2022/01/26 01:11:50;;;;;;;36.25;17.48;;;;;;;6.16;52.17;102616.91;690422;28;1339;-85
2022/01/26 01:12:11;;;;;;;33.70;17.83;;;;;;;6.22;52.03;102622.56;693015;28;1271;-85
2022/01/26 01:12:37;;;;;;;34.83;18.17;;;;;;;6.17;52.18;102610.94;690329;28;1205;-85
2022/01/26 01:12:59;;;;;;;33.70;17.90;;;;;;;6.20;52.15;102620.63;687720;28;1369;-85
2022/01/26 01:13:30;;;;;;;32.20;17.52;;;;;;;6.24;52.22;102627.84;687566;28;1569;-86
2022/01/26 01:13:51;;;;;;;31.83;16.48;;;;;;;6.21;52.49;102625.03;682534;28;1503;-85
2022/01/26 01:14:12;;;;;;;32.47;15.95;;;;;;;6.23;52.36;102624.38;681649;29;1181;-85
2022/01/26 01:14:37;;;;;;;33.10;16.45;;;;;;;6.20;52.32;102624.09;682927;28;1076;-85
2022/01/26 01:14:57;;;;;;;32.30;16.95;;;;;;;6.16;52.31;102616.91;686082;28;1711;-86
2022/01/26 01:15:18;;;;;;;30.80;16.80;;;;;;;6.14;52.51;102616.78;687707;28;1199;-86
2022/01/26 01:15:38;;;;;;;31.88;16.83;;;;;;;6.14;52.61;102615.91;688749;28;1329;-86
2022/01/26 01:16:00;;;;;;;32.30;16.50;;;;;;;6.13;52.54;102614.06;687765;28;992;-86
2022/01/26 01:16:22;;;;;;;32.78;16.98;;;;;;;6.14;52.45;102618.50;687677;28;1246;-86
2022/01/26 01:16:43;;;;;;;31.17;16.40;;;;;;;6.17;52.35;102621.31;684970;28;1144;-85
2022/01/26 01:17:07;;;;;;;28.00;15.80;;;;;;;6.19;52.53;102627.50;685176;28;1138;-85
2022/01/26 01:17:35;;;;;;;27.40;15.35;;;;;;;6.14;52.80;102618.50;685141;28;903;-85
2022/01/26 01:18:36;;;;;;;26.60;15.75;;;;;;;6.21;52.67;102625.94;687808;28;984;-85
2022/01/26 01:18:51;;;;;;;33.40;17.38;;;;;;;6.13;52.66;102603.69;690653;28;1683;-85
2022/01/26 01:19:29;;;;;;;31.05;17.00;;;;;;;6.22;52.42;102619.06;688291;28;1132;-86
2022/01/26 01:20:13;;;;;;;30.35;16.50;;;;;;;6.22;52.68;102626.84;686874;28;1707;-86
2022/01/26 01:21:04;;;;;;;33.55;16.80;;;;;;;6.15;52.93;102613.41;685488;28;981;-85
2022/01/26 01:22:25;;;;;;;30.17;16.80;;;;;;;6.29;52.71;102623.91;685014;28;988;-86
2022/01/26 01:28:27;;;;;;;33.58;17.20;;;;;;;6.24;52.62;102626.16;687704;28;1007;-85
2022/01/26 01:29:46;;;;;;;36.88;18.08;;;;;;;6.21;52.23;102620.75;687293;28;1884;-85
2022/01/26 01:30:22;;;;;;;36.78;17.67;;;;;;;6.26;52.40;102634.06;684910;28;1236;-85
2022/01/26 01:30:46;;;;;;;30.60;16.98;;;;;;;6.21;52.33;102628.53;684910;28;1077;-86
2022/01/26 01:31:14;;;;;;;30.23;16.77;;;;;;;6.18;52.38;102619.63;690325;28;1354;-86
2022/01/26 01:32:12;;;;;;;34.78;17.60;;;;;;;6.23;52.38;102637.31;685032;28;1334;-86
2022/01/26 01:32:49;;;;;;;32.60;17.25;;;;;;;6.16;52.65;102629.88;687883;28;1139;-85
2022/01/26 01:33:15;;;;;;;31.80;16.85;;;;;;;6.08;52.34;102618.00;690335;28;942;-86
2022/01/26 01:33:39;;;;;;;34.50;17.75;;;;;;;6.08;52.73;102618.00;689485;28;1008;-85
2022/01/26 01:33:59;;;;;;;34.90;18.10;;;;;;;6.07;52.95;102627.47;693146;28;1231;-85
2022/01/26 01:34:34;;;;;;;36.00;18.23;;;;;;;6.02;52.86;102614.16;693247;28;1230;-86
2022/01/26 01:34:54;;;;;;;32.00;16.98;;;;;;;6.02;52.86;102618.44;687552;28;1559;-86
2022/01/26 01:35:15;;;;;;;33.20;16.77;;;;;;;6.05;52.22;102618.69;687430;28;1179;-86
2022/01/26 01:35:40;;;;;;;34.22;16.63;;;;;;;6.06;52.75;102617.00;688410;28;1153;-86
2022/01/26 01:36:05;;;;;;;33.30;16.52;;;;;;;6.05;52.51;102615.16;693275;28;960;-86
2022/01/26 01:36:25;;;;;;;33.92;16.45;;;;;;;6.03;52.80;102615.06;692975;28;1255;-85
2022/01/26 01:36:50;;;;;;;33.67;16.63;;;;;;;6.02;52.79;102618.44;690362;28;1280;-86
2022/01/26 01:37:14;;;;;;;33.80;16.95;;;;;;;6.06;52.54;102625.66;684929;28;1252;-85
2022/01/26 01:37:35;;;;;;;34.50;18.13;;;;;;;6.03;52.43;102622.84;688212;28;1241;-85
2022/01/26 01:37:56;;;;;;;35.17;18.10;;;;;;;6.02;52.64;102613.28;687168;28;1106;-85
2022/01/26 01:38:19;;;;;;;35.22;17.73;;;;;;;6.01;52.90;102622.72;684879;28;2020;-86
2022/01/26 01:38:42;;;;;;;32.88;17.17;;;;;;;6.11;53.01;102626.00;684991;28;1049;-85
2022/01/26 01:39:04;;;;;;;32.33;16.73;;;;;;;6.02;52.53;102613.28;687600;28;1392;-85
2022/01/26 01:39:25;;;;;;;32.78;17.25;;;;;;;6.06;52.83;102617.00;687732;28;784;-85
2022/01/26 01:39:45;;;;;;;35.38;17.70;;;;;;;6.07;52.69;102617.09;687103;28;1588;-85
2022/01/26 01:40:07;;;;;;;36.20;17.83;;;;;;;6.05;52.90;102615.16;688485;28;1087;-86
2022/01/26 01:40:27;;;;;;;35.00;17.20;;;;;;;6.02;52.67;102613.28;690480;28;1347;-86
2022/01/26 01:40:50;;;;;;;34.40;16.40;;;;;;;6.08;52.81;102629.25;689997;28;1169;-85
2022/01/26 01:41:10;;;;;;;32.22;16.90;;;;;;;6.01;52.73;102612.34;687682;28;942;-85
2022/01/26 01:41:31;;;;;;;33.15;16.95;;;;;;;5.99;52.84;102619.13;682277;28;1166;-85
2022/01/26 01:41:51;;;;;;;32.23;17.20;;;;;;;5.93;53.07;102613.47;690564;28;759;-85
2022/01/26 01:42:12;;;;;;;33.42;16.73;;;;;;;6.02;52.98;102621.03;690437;28;1047;-86
2022/01/26 01:42:32;;;;;;;34.00;16.90;;;;;;;5.98;52.49;102612.13;688089;28;1119;-85
2022/01/26 01:42:53;;;;;;;35.45;17.20;;;;;;;5.95;52.92;102611.88;693138;28;1288;-85
2022/01/26 01:43:15;;;;;;;32.78;17.23;;;;;;;5.99;53.04;102624.31;687328;28;1964;-85
2022/01/26 01:43:37;;;;;;;36.55;16.92;;;;;;;5.96;52.98;102613.69;689458;28;1407;-86
2022/01/26 01:43:57;;;;;;;37.15;17.38;;;;;;;6.03;53.20;102634.09;684985;28;1258;-85
2022/01/26 01:44:18;;;;;;;37.60;17.20;;;;;;;5.94;53.13;102610.06;684291;28;1307;-86
2022/01/26 01:44:39;;;;;;;32.95;17.00;;;;;;;5.99;52.92;102616.53;687625;28;1442;-86
2022/01/26 01:44:59;;;;;;;32.67;16.45;;;;;;;5.97;53.09;102614.59;686363;28;1157;-85
2022/01/26 01:45:30;;;;;;;32.63;16.70;;;;;;;6.06;53.05;102629.97;682385;29;1790;-86
2022/01/26 01:45:53;;;;;;;34.60;17.33;;;;;;;6.02;53.12;102615.88;679828;29;934;-86
2022/01/26 01:46:13;;;;;;;34.10;17.45;;;;;;;6.06;53.11;102611.81;681482;29;1581;-86
2022/01/26 01:46:34;;;;;;;34.28;17.15;;;;;;;6.03;53.13;102605.59;685333;28;1513;-85
2022/01/26 01:46:56;;;;;;;34.22;16.50;;;;;;;6.06;52.78;102609.22;687715;28;1375;-86
2022/01/26 01:47:17;;;;;;;33.53;16.60;;;;;;;6.10;52.80;102619.03;690433;28;1170;-86
2022/01/26 01:47:38;;;;;;;35.05;16.75;;;;;;;6.11;52.56;102611.38;687004;28;1278;-85
2022/01/26 01:47:58;;;;;;;33.65;16.80;;;;;;;6.12;52.92;102622.63;684942;28;1903;-85
2022/01/26 01:48:27;;;;;;;32.25;16.40;;;;;;;6.14;52.93;102618.50;684701;28;1209;-85
2022/01/26 01:48:48;;;;;;;31.02;16.77;;;;;;;6.15;52.60;102615.09;687326;28;1137;-86
2022/01/26 01:49:11;;;;;;;31.87;16.90;;;;;;;6.15;52.74;102622.88;685051;28;1077;-86
2022/01/26 01:49:33;;;;;;;32.47;17.00;;;;;;;6.15;52.86;102615.09;681987;28;1135;-86
2022/01/26 01:49:54;;;;;;;33.35;17.00;;;;;;;6.16;52.51;102602.22;685362;28;1533;-86
2022/01/26 01:50:14;;;;;;;32.13;16.88;;;;;;;6.16;52.82;102607.41;687621;28;1232;-86
2022/01/26 01:50:40;;;;;;;33.13;16.75;;;;;;;6.26;52.75;102619.41;686102;28;1116;-86
2022/01/26 01:51:06;;;;;;;36.35;17.52;;;;;;;6.19;52.63;102604.16;679669;29;1070;-86
2022/01/26 01:51:35;;;;;;;37.03;18.08;;;;;;;6.15;52.90;102595.25;686560;28;913;-86
2022/01/26 01:52:01;;;;;;;33.22;17.17;;;;;;;6.13;52.79;102599.41;684968;28;1233;-85
2022/01/26 01:52:22;;;;;;;35.65;16.98;;;;;;;6.14;52.84;102602.94;685015;28;1356;-86
2022/01/26 01:52:42;;;;;;;36.50;17.42;;;;;;;6.07;52.72;102598.94;686785;28;1130;-86
2022/01/26 01:53:03;;;;;;;38.28;18.05;;;;;;;6.05;52.64;102592.75;686144;28;1080;-86
2022/01/26 01:53:38;;;;;;;35.17;17.70;;;;;;;6.07;52.99;102587.69;687571;28;1687;-84
2022/01/26 01:54:18;;;;;;;34.15;17.65;;;;;;;6.17;52.76;102608.34;693141;28;877;-85
2022/01/26 01:54:41;;;;;;;34.20;16.48;;;;;;;6.09;52.73;102597.41;691719;28;916;-85
2022/01/26 01:55:04;;;;;;;31.67;15.77;;;;;;;6.11;52.98;102597.50;687418;28;1631;-86
2022/01/26 01:55:27;;;;;;;29.08;15.95;;;;;;;6.10;52.86;102591.44;686804;28;1587;-86
2022/01/26 01:55:50;;;;;;;29.15;16.08;;;;;;;6.13;53.20;102595.91;687677;28;1119;-85
2022/01/26 01:56:14;;;;;;;31.92;17.05;;;;;;;6.12;53.15;102604.47;682339;29;1338;-86
2022/01/26 01:56:38;;;;;;;33.55;17.48;;;;;;;6.06;53.13;102593.66;687543;28;1055;-85
2022/01/26 01:56:59;;;;;;;36.80;17.90;;;;;;;6.08;52.69;102589.50;687473;28;1491;-86
2022/01/26 01:57:24;;;;;;;35.75;17.70;;;;;;;6.06;52.95;102596.25;687663;28;1153;-86
2022/01/26 01:57:45;;;;;;;36.50;17.02;;;;;;;6.16;52.59;102611.72;690243;28;1306;-86
2022/01/26 01:58:06;;;;;;;33.30;16.80;;;;;;;6.13;53.01;102604.59;690337;28;1278;-86
2022/01/26 01:58:28;;;;;;;31.85;17.13;;;;;;;6.11;52.69;102607.88;684807;28;1751;-86
2022/01/26 01:58:49;;;;;;;29.05;16.90;;;;;;;6.05;52.61;102599.63;692781;28;1123;-86
2022/01/26 01:59:10;;;;;;;30.73;16.80;;;;;;;6.00;52.99;102589.81;693047;28;1226;-86
2022/01/26 01:59:33;;;;;;;31.52;16.67;;;;;;;5.99;53.31;102592.28;693786;28;830;-85
2022/01/26 01:59:53;;;;;;;31.20;16.50;;;;;;;5.99;53.00;102588.00;693035;28;858;-85
2022/01/26 02:00:14;;;;;;;32.40;16.77;;;;;;;5.96;52.56;102595.53;690425;28;909;-85
2022/01/26 02:00:39;;;;;;;31.08;16.30;;;;;;;5.96;53.08;102592.06;689905;28;1287;-85
2022/01/26 02:01:00;;;;;;;31.95;16.60;;;;;;;6.04;52.99;102606.50;687271;28;875;-85
2022/01/26 02:01:21;;;;;;;33.75;16.88;;;;;;;5.99;53.15;102598.38;687767;28;1039;-86
2022/01/26 02:01:50;;;;;;;36.40;18.10;;;;;;;5.99;53.16;102595.78;684914;28;1279;-86
2022/01/26 02:02:11;;;;;;;37.58;18.35;;;;;;;6.00;53.00;102592.41;684489;28;1245;-86
2022/01/26 02:02:31;;;;;;;35.97;17.63;;;;;;;6.06;53.06;102606.63;682427;28;1213;-85
2022/01/26 02:02:52;;;;;;;30.98;16.65;;;;;;;6.01;52.79;102594.22;684803;28;1225;-86
2022/01/26 02:03:13;;;;;;;29.20;16.30;;;;;;;6.08;53.01;102611.13;685063;28;953;-86
2022/01/26 02:03:34;;;;;;;27.00;16.05;;;;;;;6.07;52.67;102604.13;684823;28;1231;-86
2022/01/26 02:03:54;;;;;;;27.77;15.63;;;;;;;6.01;52.54;102596.81;687646;28;889;-86
2022/01/26 02:04:15;;;;;;;30.10;15.50;;;;;;;6.10;53.14;102613.84;684844;28;1167;-85
2022/01/26 02:04:36;;;;;;;31.33;15.90;;;;;;;6.01;52.74;102596.81;691124;28;1107;-85
2022/01/26 02:04:56;;;;;;;35.47;16.88;;;;;;;6.01;52.91;102593.28;690311;28;1176;-86
2022/01/26 02:05:17;;;;;;;36.30;17.70;;;;;;;6.05;52.68;102602.19;687769;28;1049;-86
2022/01/26 02:05:38;;;;;;;37.77;18.07;;;;;;;6.06;52.81;102606.63;685177;28;1816;-86
2022/01/26 02:05:59;;;;;;;34.57;17.13;;;;;;;6.00;53.03;102599.25;687682;28;1203;-86
2022/01/26 02:06:19;;;;;;;32.28;16.40;;;;;;;6.00;53.11;102595.00;687320;28;1243;-85
2022/01/26 02:06:43;;;;;;;33.30;16.35;;;;;;;6.05;52.68;102602.19;685600;28;1080;-86
2022/01/26 02:07:03;;;;;;;32.30;16.55;;;;;;;6.05;52.72;102607.38;684942;28;1223;-86
2022/01/26 02:07:24;;;;;;;32.22;16.45;;;;;;;5.95;53.07;102590.25;687774;28;728;-85
2022/01/26 02:07:45;;;;;;;29.33;15.65;;;;;;;6.01;53.25;102608.84;692286;28;1331;-86
2022/01/26 02:08:06;;;;;;;30.10;15.88;;;;;;;5.96;52.96;102598.13;690074;28;1918;-86
2022/01/26 02:08:26;;;;;;;29.13;16.05;;;;;;;5.93;52.96;102597.91;690427;28;933;-85
2022/01/26 02:08:47;;;;;;;29.30;16.67;;;;;;;5.92;53.16;102593.50;687949;28;1309;-86
2022/01/26 02:09:08;;;;;;;29.10;16.35;;;;;;;5.98;53.02;102600.84;687558;28;1229;-85
2022/01/26 02:09:28;;;;;;;28.88;15.80;;;;;;;5.99;52.78;102603.56;684813;28;787;-85
2022/01/26 02:09:48;;;;;;;28.13;15.53;;;;;;;5.94;53.19;102596.22;684997;28;1091;-86
2022/01/26 02:10:10;;;;;;;30.92;16.48;;;;;;;5.93;53.07;102600.50;685087;28;1100;-85
2022/01/26 02:10:32;;;;;;;32.53;16.60;;;;;;;5.96;53.09;102607.59;685025;28;1080;-85
2022/01/26 02:10:52;;;;;;;33.55;16.63;;;;;;;5.96;52.85;102610.19;686144;28;1407;-85
2022/01/26 02:11:15;;;;;;;31.33;16.13;;;;;;;5.98;52.76;102612.13;692953;28;1058;-85
2022/01/26 02:11:42;;;;;;;31.17;16.50;;;;;;;5.91;52.98;102601.16;691056;28;1376;-85
2022/01/26 02:12:12;;;;;;;31.70;16.50;;;;;;;5.91;52.81;102609.84;690317;28;1508;-85
2022/01/26 02:12:35;;;;;;;32.85;17.08;;;;;;;5.91;53.06;102603.75;688448;28;1130;-86
2022/01/26 02:12:59;;;;;;;32.63;17.20;;;;;;;5.95;53.36;102617.06;690294;28;1391;-85
2022/01/26 02:13:30;;;;;;;32.75;17.17;;;;;;;5.88;53.28;102604.41;687644;28;1259;-86
2022/01/26 02:14:09;;;;;;;29.20;16.30;;;;;;;5.77;53.30;102590.63;682145;28;2022;-85
2022/01/26 02:14:37;;;;;;;30.25;16.88;;;;;;;5.80;53.15;102589.97;684474;28;1568;-85
2022/01/26 02:15:07;;;;;;;32.20;17.30;;;;;;;5.86;53.50;102606.00;684847;28;1056;-86
2022/01/26 02:16:10;;;;;;;32.88;16.80;;;;;;;5.88;53.43;102610.50;685051;28;815;-86
2022/01/26 02:16:49;;;;;;;29.13;15.57;;;;;;;5.72;53.51;102598.03;685032;28;1029;-86
2022/01/26 02:18:19;;;;;;;34.05;17.50;;;;;;;5.77;53.43;102600.09;689336;28;1280;-86
2022/01/26 02:20:41;;;;;;;29.45;16.05;;;;;;;5.84;53.32;102612.75;687568;28;1204;-85
2022/01/26 02:21:43;;;;;;;32.22;16.00;;;;;;;5.86;53.84;102613.75;686030;28;1160;-86
2022/01/26 02:52:25;;;;;;;32.05;16.92;;;;;;;6.00;53.43;102586.31;690706;28;1061;-85
2022/01/26 02:55:48;;;;;;;34.83;18.08;;;;;;;5.98;53.18;102564.56;690833;28;874;-85
2022/01/26 02:56:26;;;;;;;33.65;17.08;;;;;;;5.97;53.47;102568.84;688394;28;1158;-85